Time;durP1;ratioP1;P1;durP2;ratioP2;P2;SDS_P1;SDS_P2;PMS_P1;PMS_P2;Temp;Humidity;BMP_temperature;BMP_pressure;BME280_temperature;BME280_humidity;BME280_pressure;Samples;Min_cycle;Max_cycle;Signal;HPM_P1;HPM_P2
2022/01/15 00:00:25;;;;;;;6.97;4.40;;;;;;;5.63;78.04;95121.34;5015631;28;20447;-84
2022/01/15 00:02:52;;;;;;;7.20;5.40;;;;;;;5.62;78.95;95124.03;5015551;28;20449;-85
2022/01/15 00:05:19;;;;;;;6.77;5.67;;;;;;;5.64;77.97;95124.78;5013441;28;20446;-84
2022/01/15 00:07:48;;;;;;;8.40;5.90;;;;;;;5.66;78.77;95130.72;5015305;28;20450;-84
2022/01/15 00:10:15;;;;;;;8.77;5.70;;;;;;;5.68;78.42;95134.06;5015510;28;20427;-84
2022/01/15 00:12:42;;;;;;;6.00;5.17;;;;;;;5.71;79.03;95128.66;5015395;28;20431;-84
2022/01/15 00:15:15;;;;;;;5.43;4.60;;;;;;;5.72;79.00;95130.31;5015468;28;20430;-84
2022/01/15 00:17:49;;;;;;;8.83;5.37;;;;;;;5.75;78.68;95133.56;5015860;28;20839;-85
2022/01/15 00:20:19;;;;;;;11.00;6.50;;;;;;;5.72;79.28;95130.31;5015206;28;20446;-83
2022/01/15 00:22:47;;;;;;;9.57;5.70;;;;;;;5.72;79.51;95123.34;5015503;28;20443;-85
2022/01/15 00:25:14;;;;;;;7.37;4.80;;;;;;;5.70;79.63;95116.56;5015355;28;20500;-85
2022/01/15 00:40:53;;;;;;;6.27;4.80;;;;;;;5.57;81.12;95127.75;4953708;29;20468;-83
2022/01/15 00:43:20;;;;;;;9.50;5.50;;;;;;;5.57;80.12;95142.53;4954631;29;20812;-84
2022/01/15 00:45:48;;;;;;;6.83;5.00;;;;;;;5.57;80.58;95135.56;4954299;29;20450;-84
2022/01/15 00:48:15;;;;;;;9.20;4.83;;;;;;;5.60;80.48;95127.56;4954344;29;20491;-84
2022/01/15 00:50:42;;;;;;;5.57;4.80;;;;;;;5.63;80.61;95141.31;4954240;29;20478;-84
2022/01/15 00:53:09;;;;;;;7.03;4.97;;;;;;;5.65;80.91;95136.84;4954221;29;20492;-84
2022/01/15 00:55:36;;;;;;;6.93;5.20;;;;;;;5.68;80.21;95139.25;5005327;28;20423;-84
2022/01/15 00:58:04;;;;;;;8.43;4.63;;;;;;;5.67;79.96;95137.59;4996316;28;20455;-84
2022/01/15 01:00:31;;;;;;;6.20;3.87;;;;;;;5.68;80.99;95141.88;5014039;28;20450;-84
2022/01/15 01:02:58;;;;;;;8.87;5.07;;;;;;;5.66;80.13;95130.72;4996098;28;20439;-85
2022/01/15 01:05:25;;;;;;;10.10;6.20;;;;;;;5.69;79.93;95126.16;5013952;28;20443;-84
2022/01/15 01:07:53;;;;;;;5.30;4.80;;;;;;;5.72;79.89;95135.53;5014527;28;20457;-84
2022/01/15 01:10:47;;;;;;;7.07;5.30;;;;;;;5.64;79.99;95125.59;5013798;28;20448;-84
2022/01/15 01:13:39;;;;;;;5.67;4.40;;;;;;;5.68;79.65;95134.91;5014397;28;20634;-84
2022/01/15 01:24:21;;;;;;;6.80;5.00;;;;;;;5.64;80.95;95137.78;4973389;28;20456;-85
2022/01/15 01:26:54;;;;;;;6.50;4.57;;;;;;;5.65;80.30;95136.84;4973262;28;20853;-84
2022/01/15 01:29:32;;;;;;;5.80;5.00;;;;;;;5.66;80.69;95135.91;4973330;28;20448;-84
2022/01/15 01:32:03;;;;;;;6.60;4.93;;;;;;;5.64;80.24;95120.41;4972927;28;20439;-84
2022/01/15 01:34:33;;;;;;;7.93;5.03;;;;;;;5.66;80.24;95112.50;4972883;28;20479;-84
2022/01/15 01:37:06;;;;;;;10.13;6.70;;;;;;;5.66;80.84;95105.53;4973584;28;20538;-84
2022/01/15 01:39:42;;;;;;;8.03;5.50;;;;;;;5.65;79.99;95103.00;4973043;28;20515;-84
2022/01/15 01:42:26;;;;;;;7.97;5.50;;;;;;;5.71;80.16;95113.03;4973923;28;20440;-84
2022/01/15 01:45:04;;;;;;;8.77;5.37;;;;;;;5.67;80.39;95103.75;4972935;28;20440;-84
2022/01/15 01:47:39;;;;;;;4.83;4.30;;;;;;;5.64;80.37;95109.97;4973142;28;20456;-85
2022/01/15 01:50:09;;;;;;;6.10;4.33;;;;;;;5.53;81.10;95099.41;4972703;28;20479;-84
2022/01/15 01:52:37;;;;;;;6.00;4.03;;;;;;;5.54;80.68;95090.69;4972728;28;20450;-84
2022/01/15 01:55:04;;;;;;;10.90;6.70;;;;;;;5.47;80.87;95086.75;4978931;28;20968;-84
2022/01/15 01:57:32;;;;;;;8.23;5.57;;;;;;;5.49;80.84;95103.09;4988795;28;20515;-84
2022/01/15 02:00:02;;;;;;;5.27;4.60;;;;;;;5.47;80.69;95098.00;4984875;28;20513;-85
2022/01/15 02:02:28;;;;;;;7.90;4.60;;;;;;;5.44;81.71;95094.75;5014410;28;20525;-85
2022/01/15 02:04:58;;;;;;;6.23;4.73;;;;;;;5.47;80.75;95108.41;5015260;28;20447;-84
2022/01/15 02:07:27;;;;;;;7.87;5.30;;;;;;;5.49;80.93;95097.91;5015238;28;20466;-84
2022/01/15 02:09:55;;;;;;;6.20;4.30;;;;;;;5.44;80.57;95095.59;5015837;28;20451;-84
2022/01/15 02:12:22;;;;;;;12.90;8.47;;;;;;;5.45;79.48;95099.88;5014346;28;20480;-84
2022/01/15 02:14:49;;;;;;;9.50;6.20;;;;;;;5.49;80.25;95109.19;5014212;28;20475;-84
2022/01/15 02:17:21;;;;;;;12.27;8.23;;;;;;;5.51;79.12;95104.72;5013593;28;20444;-84
2022/01/15 02:25:57;;;;;;;11.37;6.83;;;;;;;5.59;77.97;95107.69;5017317;28;20449;-84
2022/01/15 02:28:26;;;;;;;14.10;7.17;;;;;;;5.59;78.33;95112.03;4999250;28;20823;-84
2022/01/15 02:30:54;;;;;;;8.53;5.80;;;;;;;5.55;78.43;95102.75;5017044;28;20441;-84
2022/01/15 02:33:21;;;;;;;9.87;6.83;;;;;;;5.53;78.37;95094.22;4998680;28;20811;-85
2022/01/15 02:35:48;;;;;;;10.33;7.30;;;;;;;5.48;78.34;95099.66;5017276;28;20449;-85
2022/01/15 02:38:17;;;;;;;9.77;6.43;;;;;;;5.46;78.61;95108.50;5017073;28;20448;-83
2022/01/15 02:40:45;;;;;;;8.57;6.20;;;;;;;5.45;78.77;95101.63;5016590;28;20461;-84
2022/01/15 02:43:15;;;;;;;8.63;6.07;;;;;;;5.46;79.23;95101.53;5016576;28;20434;-84
2022/01/15 02:45:45;;;;;;;8.07;6.27;;;;;;;5.47;79.15;95103.19;5016923;28;20950;-84
2022/01/15 02:48:13;;;;;;;6.40;4.80;;;;;;;5.49;78.74;95109.19;5016772;28;21030;-84
2022/01/15 02:57:25;;;;;;;6.27;5.60;;;;;;;5.47;77.96;95111.00;5015690;28;20823;-84
2022/01/15 02:59:52;;;;;;;8.30;4.83;;;;;;;5.47;77.97;95113.63;5016775;28;20437;-83
2022/01/15 03:02:19;;;;;;;7.63;5.90;;;;;;;5.51;77.78;95109.09;5016428;28;20427;-84
2022/01/15 03:04:46;;;;;;;9.13;6.00;;;;;;;5.50;76.99;95107.41;5016483;28;20434;-84
2022/01/15 03:13:58;;;;;;;11.03;7.00;;;;;;;5.37;78.33;95109.06;5015199;28;20501;-85
2022/01/15 03:16:25;;;;;;;16.33;8.43;;;;;;;5.33;78.43;95103.22;5016158;28;20943;-84
2022/01/15 03:18:52;;;;;;;11.13;5.73;;;;;;;5.29;77.52;95099.97;5016127;28;20437;-84
2022/01/15 03:21:19;;;;;;;9.53;5.60;;;;;;;5.26;77.58;95105.38;5016187;28;20432;-84
2022/01/15 03:23:45;;;;;;;8.90;5.50;;;;;;;5.22;75.94;95111.69;5016254;28;20443;-84
2022/01/15 03:26:14;;;;;;;8.70;5.97;;;;;;;5.21;76.05;95111.78;5016630;28;20971;-84
2022/01/15 03:28:43;;;;;;;11.63;7.40;;;;;;;5.24;75.56;95109.00;5016245;28;20466;-84
2022/01/15 03:31:12;;;;;;;11.90;7.03;;;;;;;5.26;74.85;95120.97;5016885;28;21005;-84
2022/01/15 03:33:39;;;;;;;9.80;6.60;;;;;;;5.23;75.58;95128.97;5020833;28;20435;-84
2022/01/15 03:36:06;;;;;;;12.07;8.10;;;;;;;5.16;75.67;95132.00;5021687;28;20454;-83
2022/01/15 03:38:33;;;;;;;12.20;7.10;;;;;;;5.09;75.76;95138.50;5016087;28;20441;-84
2022/01/15 03:41:00;;;;;;;10.43;6.73;;;;;;;5.07;75.08;95135.16;5015728;28;20939;-84
2022/01/15 03:43:27;;;;;;;12.30;7.87;;;;;;;5.06;75.53;95141.31;5015935;28;20446;-84
2022/01/15 03:45:54;;;;;;;11.87;7.47;;;;;;;5.03;75.84;95133.69;5016075;28;20533;-83
2022/01/15 03:48:24;;;;;;;11.57;7.73;;;;;;;5.06;76.29;95136.09;5015499;28;20438;-84
2022/01/15 03:50:51;;;;;;;13.83;7.43;;;;;;;5.07;75.74;95142.97;5016071;28;20489;-84
2022/01/15 03:53:20;;;;;;;8.67;6.00;;;;;;;5.04;76.80;95158.75;5015635;28;20446;-84
2022/01/15 03:55:47;;;;;;;9.67;5.70;;;;;;;4.96;77.16;95139.25;5015414;28;20536;-84
2022/01/15 03:58:14;;;;;;;9.60;8.17;;;;;;;5.01;76.40;95156.34;5015723;28;20790;-84
2022/01/15 04:00:41;;;;;;;8.43;5.43;;;;;;;4.96;77.77;95156.63;5015415;28;20442;-84
2022/01/15 04:03:08;;;;;;;8.17;6.80;;;;;;;4.96;77.52;95157.44;4997392;28;20442;-84
2022/01/15 04:05:36;;;;;;;11.73;7.73;;;;;;;4.94;77.53;95148.91;5015765;28;20455;-84
2022/01/15 04:08:03;;;;;;;9.00;6.20;;;;;;;4.95;78.98;95155.78;5015158;28;20459;-84
2022/01/15 04:10:30;;;;;;;9.93;5.90;;;;;;;5.01;78.96;95171.94;5015060;28;20449;-84
2022/01/15 04:12:57;;;;;;;11.50;6.50;;;;;;;5.03;78.32;95173.53;5015016;28;20442;-84
2022/01/15 04:15:25;;;;;;;9.33;6.43;;;;;;;5.03;78.04;95178.72;5014820;28;20495;-84
2022/01/15 04:17:52;;;;;;;8.23;5.90;;;;;;;5.04;78.71;95167.41;5015195;28;20470;-84
2022/01/15 04:20:22;;;;;;;11.30;6.90;;;;;;;5.06;78.43;95182.91;5015075;28;20886;-84
2022/01/15 04:22:52;;;;;;;8.57;7.40;;;;;;;5.05;78.71;95184.69;5015962;28;20458;-84
2022/01/15 04:25:20;;;;;;;10.43;6.50;;;;;;;5.04;78.53;95190.81;5015573;28;20445;-84
2022/01/15 04:27:47;;;;;;;10.80;6.70;;;;;;;5.04;78.72;95193.41;5015082;28;20451;-84
2022/01/15 04:30:16;;;;;;;10.67;6.27;;;;;;;4.90;78.39;95189.00;5014561;28;20996;-84
2022/01/15 04:32:43;;;;;;;7.67;6.10;;;;;;;4.92;78.72;95204.53;5014756;28;20453;-84
2022/01/15 04:35:12;;;;;;;8.97;6.80;;;;;;;4.85;79.48;95200.59;5014615;28;20980;-84
2022/01/15 04:37:43;;;;;;;14.10;7.50;;;;;;;4.80;79.14;95226.84;5014574;28;20507;-84
2022/01/15 04:40:15;;;;;;;12.57;8.80;;;;;;;4.83;78.46;95224.06;5014465;28;20437;-84
2022/01/15 04:42:43;;;;;;;10.80;7.07;;;;;;;4.76;79.00;95211.53;5015107;28;20481;-84
2022/01/15 04:45:10;;;;;;;11.47;8.20;;;;;;;4.74;79.12;95203.81;5014448;28;20510;-83
2022/01/15 04:50:59;;;;;;;10.13;7.27;;;;;;;4.69;79.54;95220.59;5011276;28;20545;-84
2022/01/15 04:53:26;;;;;;;11.83;7.30;;;;;;;4.67;80.05;95238.88;5014226;28;20445;-84
2022/01/15 04:55:54;;;;;;;13.03;8.13;;;;;;;4.68;79.90;95239.72;5014296;28;20853;-84
2022/01/15 04:58:23;;;;;;;15.10;8.50;;;;;;;4.68;80.45;95245.75;5014174;28;20428;-79
2022/01/15 05:11:10;;;;;;;13.03;8.20;;;;;;;4.62;80.87;95240.88;5013981;28;20440;-79
2022/01/15 05:13:37;;;;;;;13.50;8.30;;;;;;;4.59;82.15;95256.63;5014162;28;20520;-79
2022/01/15 05:16:04;;;;;;;15.37;9.13;;;;;;;4.56;81.59;95251.63;4995750;28;20490;-79
2022/01/15 05:18:31;;;;;;;14.20;8.07;;;;;;;4.53;82.90;95254.38;5012317;28;20445;-79
2022/01/15 05:20:58;;;;;;;11.43;8.07;;;;;;;4.45;82.88;95254.81;5013728;28;20447;-79
2022/01/15 05:23:24;;;;;;;11.60;8.30;;;;;;;4.43;82.61;95261.03;5014009;28;20805;-79
2022/01/15 05:25:51;;;;;;;15.13;9.30;;;;;;;4.42;82.65;95274.94;4995623;28;20441;-79
2022/01/15 05:28:20;;;;;;;14.67;10.70;;;;;;;4.42;83.56;95267.97;5013980;28;20457;-79
2022/01/15 05:30:46;;;;;;;14.03;10.10;;;;;;;4.42;83.59;95269.75;5014209;28;20441;-79
2022/01/15 05:33:13;;;;;;;13.63;9.77;;;;;;;4.41;83.80;95276.69;4979803;28;20444;-79
2022/01/15 05:35:40;;;;;;;17.20;10.70;;;;;;;4.40;83.65;95272.41;5013742;28;20485;-79
2022/01/15 05:38:07;;;;;;;12.03;9.57;;;;;;;4.36;84.25;95273.50;5013886;28;20432;-79
2022/01/15 05:40:34;;;;;;;14.70;11.07;;;;;;;4.34;83.73;95280.56;5013401;28;20913;-79
2022/01/15 05:43:01;;;;;;;15.70;9.30;;;;;;;4.34;84.28;95278.78;5013492;28;20441;-79
2022/01/15 05:45:29;;;;;;;13.63;8.93;;;;;;;4.32;83.97;95275.41;5013811;28;20787;-79
2022/01/15 05:47:56;;;;;;;13.67;9.47;;;;;;;4.41;83.07;95274.09;5014229;28;20916;-81
2022/01/15 05:50:23;;;;;;;15.87;10.17;;;;;;;4.41;83.88;95281.06;5013905;28;20472;-81
2022/01/15 05:52:50;;;;;;;17.03;10.70;;;;;;;4.34;84.04;95284.00;5014100;28;20441;-80
2022/01/15 05:58:38;;;;;;;16.03;10.80;;;;;;;4.23;83.73;95275.09;4996353;28;20468;-80
2022/01/15 06:01:07;;;;;;;15.10;9.90;;;;;;;4.21;83.45;95293.34;4979702;28;20437;-80
2022/01/15 06:03:34;;;;;;;18.73;10.73;;;;;;;4.19;83.58;95300.38;4997769;28;20944;-80
2022/01/15 06:06:02;;;;;;;14.47;9.83;;;;;;;4.17;83.54;95297.03;4997931;28;20444;-81
2022/01/15 06:08:29;;;;;;;17.77;10.43;;;;;;;4.13;83.77;95305.06;4997869;28;20901;-81
2022/01/15 06:10:56;;;;;;;15.40;11.47;;;;;;;4.11;84.47;95312.94;4997723;28;20453;-81
2022/01/15 06:13:23;;;;;;;12.77;10.20;;;;;;;4.08;86.01;95307.91;4997522;28;20436;-81
2022/01/15 06:15:50;;;;;;;20.43;13.03;;;;;;;4.17;86.27;95323.00;4997360;28;21009;-80
2022/01/15 06:18:18;;;;;;;20.67;14.20;;;;;;;4.15;85.67;95317.06;4997353;28;20430;-80
2022/01/15 06:20:45;;;;;;;17.73;12.90;;;;;;;4.14;86.41;95323.16;4997315;28;20432;-80
2022/01/15 06:23:12;;;;;;;16.43;11.10;;;;;;;4.12;85.66;95329.38;4997280;28;20444;-81
2022/01/15 06:25:38;;;;;;;16.47;11.50;;;;;;;4.15;85.69;95345.63;4997494;28;20459;-81
2022/01/15 06:28:05;;;;;;;21.63;11.67;;;;;;;4.16;85.30;95352.50;4997328;28;20465;-80
2022/01/15 06:30:32;;;;;;;19.53;13.63;;;;;;;4.18;86.04;95350.66;4997312;28;20454;-81
2022/01/15 06:32:59;;;;;;;19.70;12.73;;;;;;;4.14;85.01;95345.69;4979343;28;20441;-80
2022/01/15 06:35:27;;;;;;;18.00;12.20;;;;;;;4.14;85.69;95338.75;4995882;28;20476;-81
2022/01/15 06:37:54;;;;;;;23.77;14.03;;;;;;;4.21;85.29;95357.44;4997775;28;20433;-81
2022/01/15 06:40:22;;;;;;;19.57;13.10;;;;;;;4.19;85.87;95357.53;4987499;28;20795;-81
2022/01/15 06:42:48;;;;;;;21.43;13.50;;;;;;;4.13;85.02;95359.59;5016812;28;20434;-79
2022/01/15 06:45:15;;;;;;;19.03;12.63;;;;;;;4.15;85.29;95365.56;5017096;28;20439;-80
2022/01/15 06:47:42;;;;;;;18.07;14.07;;;;;;;4.10;84.96;95368.41;5016346;28;20436;-80
2022/01/15 06:50:10;;;;;;;22.67;14.50;;;;;;;4.06;85.36;95356.50;5016557;28;20475;-81
2022/01/15 06:52:39;;;;;;;15.00;11.10;;;;;;;4.04;86.32;95369.53;5016566;28;20447;-82
2022/01/15 06:55:08;;;;;;;20.20;13.10;;;;;;;4.04;85.47;95374.72;5016350;28;20483;-80
2022/01/15 06:57:35;;;;;;;18.00;12.30;;;;;;;3.95;85.95;95364.81;5016187;28;20455;-80
2022/01/15 07:00:02;;;;;;;16.90;11.47;;;;;;;4.01;87.42;95368.84;5016861;28;20432;-80
2022/01/15 07:19:20;;;;;;;32.67;21.70;;;;;;;4.42;86.07;95381.47;5015947;28;20440;-80
2022/01/15 07:21:47;;;;;;;28.93;18.57;;;;;;;4.48;89.39;95386.31;5015776;28;20449;-80
2022/01/15 07:24:14;;;;;;;24.23;14.10;;;;;;;4.41;85.33;95393.63;5015996;28;20438;-83
2022/01/15 07:26:40;;;;;;;28.40;21.20;;;;;;;4.40;84.85;95393.69;5015682;28;20437;-81
2022/01/15 07:29:14;;;;;;;27.67;21.53;;;;;;;4.32;85.00;95394.06;4997687;28;20463;-82
2022/01/15 07:45:12;;;;;;;28.00;15.73;;;;;;;4.22;85.69;95419.69;5015700;28;20430;-83
2022/01/15 07:47:39;;;;;;;21.83;15.00;;;;;;;4.26;85.28;95436.78;5015745;28;20457;-82
2022/01/15 07:50:09;;;;;;;28.90;17.03;;;;;;;4.36;85.31;95432.00;5016851;28;20481;-81
2022/01/15 07:52:36;;;;;;;18.33;13.23;;;;;;;4.35;85.21;95430.31;5015989;28;20454;-83
2022/01/15 07:55:03;;;;;;;22.40;14.03;;;;;;;4.41;84.63;95432.59;5015937;28;20484;-83
2022/01/15 07:57:30;;;;;;;22.47;14.97;;;;;;;4.45;84.80;95431.50;5015444;28;20825;-83
2022/01/15 07:59:57;;;;;;;21.30;12.27;;;;;;;4.52;83.40;95438.03;5015497;28;20448;-82
2022/01/15 08:02:26;;;;;;;31.03;18.00;;;;;;;4.55;83.31;95447.44;5015909;28;20436;-81
2022/01/15 08:04:53;;;;;;;22.10;13.90;;;;;;;4.58;84.05;95455.06;5021127;28;20465;-81
2022/01/15 08:07:19;;;;;;;23.23;15.43;;;;;;;4.59;83.36;95455.00;5024080;28;20453;-82
2022/01/15 08:09:46;;;;;;;25.77;13.20;;;;;;;4.43;83.41;95454.13;5000438;28;20442;-83
2022/01/15 08:12:13;;;;;;;18.10;13.00;;;;;;;4.35;82.93;95440.69;5017395;28;20826;-83
2022/01/15 08:14:40;;;;;;;21.60;14.00;;;;;;;4.29;83.25;95457.41;5001285;28;20469;-83
2022/01/15 08:17:07;;;;;;;28.23;17.83;;;;;;;4.28;82.81;95466.13;5018598;28;20433;-81
2022/01/15 08:19:35;;;;;;;23.87;14.53;;;;;;;4.25;83.31;95476.69;5020579;28;20907;-81
2022/01/15 08:22:03;;;;;;;21.53;15.43;;;;;;;4.22;82.97;95482.03;5015049;28;20735;-81
2022/01/15 08:24:29;;;;;;;25.20;14.17;;;;;;;4.22;83.50;95488.97;5015510;28;20440;-81
2022/01/15 08:26:56;;;;;;;20.47;13.60;;;;;;;4.22;84.56;95507.16;5014639;28;20460;-82
2022/01/15 08:29:23;;;;;;;16.00;12.70;;;;;;;4.23;84.04;95503.66;5014508;28;20434;-81
2022/01/15 08:31:50;;;;;;;21.30;12.20;;;;;;;4.27;83.72;95503.41;5014721;28;20434;-82
2022/01/15 08:34:17;;;;;;;19.53;13.57;;;;;;;5.00;90.74;95495.34;4996566;28;20440;-81
2022/01/15 08:36:46;;;;;;;20.83;13.53;;;;;;;4.78;81.15;95499.06;5014542;28;20480;-81
2022/01/15 08:39:13;;;;;;;16.57;13.30;;;;;;;4.76;81.26;95506.09;5014573;28;20441;-81
2022/01/15 08:41:43;;;;;;;20.47;14.20;;;;;;;4.67;82.53;95501.41;5014333;28;20939;-81
2022/01/15 08:44:11;;;;;;;21.80;14.80;;;;;;;4.64;83.26;95504.16;5014462;28;20498;-82
2022/01/15 08:46:39;;;;;;;26.37;15.20;;;;;;;4.66;81.91;95507.53;5014216;28;20526;-79
2022/01/15 08:49:06;;;;;;;21.33;13.30;;;;;;;4.63;82.04;95502.47;5014451;28;20433;-81
2022/01/15 08:51:33;;;;;;;22.33;14.17;;;;;;;4.54;82.22;95513.31;5014152;28;20442;-82
2022/01/15 08:54:01;;;;;;;19.47;12.70;;;;;;;4.47;82.04;95524.97;5014451;28;20461;-84
2022/01/15 08:56:28;;;;;;;19.13;13.13;;;;;;;4.42;81.54;95530.41;5014442;28;20495;-83
2022/01/15 08:58:55;;;;;;;22.37;13.27;;;;;;;4.45;81.21;95529.41;5014370;28;20444;-84
2022/01/15 09:01:22;;;;;;;21.03;14.30;;;;;;;4.43;81.84;95526.03;5014548;28;20808;-82
2022/01/15 09:03:49;;;;;;;22.43;13.57;;;;;;;4.50;81.56;95533.44;5013930;28;20935;-82
2022/01/15 09:06:16;;;;;;;22.80;15.00;;;;;;;4.55;80.88;95533.19;5014182;28;20441;-81
2022/01/15 09:08:45;;;;;;;27.37;16.60;;;;;;;4.58;81.50;95535.63;5014154;28;20436;-81
2022/01/15 09:11:13;;;;;;;25.43;14.33;;;;;;;4.48;80.98;95531.84;5014141;28;20451;-81
2022/01/15 09:13:40;;;;;;;18.90;13.73;;;;;;;4.52;81.09;95541.16;4995911;28;20920;-81
2022/01/15 09:16:13;;;;;;;26.33;15.13;;;;;;;4.60;81.80;95539.00;5013985;28;20488;-81
2022/01/15 09:18:40;;;;;;;26.47;15.47;;;;;;;4.60;81.48;95536.41;5014039;28;20435;-81
2022/01/15 09:21:07;;;;;;;27.83;15.90;;;;;;;4.65;80.73;95534.44;5013651;28;20443;-81
2022/01/15 09:23:34;;;;;;;26.37;16.93;;;;;;;4.70;81.11;95548.03;5013950;28;20434;-81
2022/01/15 09:26:01;;;;;;;21.67;15.40;;;;;;;4.79;80.84;95547.53;5013539;28;20962;-81
2022/01/15 09:31:13;;;;;;;21.37;13.67;;;;;;;4.91;80.58;95538.25;5013467;28;20904;-82
2022/01/15 09:33:41;;;;;;;21.53;13.20;;;;;;;4.83;80.56;95543.88;5013733;28;20461;-82
2022/01/15 09:50:03;;;;;;;22.10;14.97;;;;;;;5.13;78.43;95506.75;5005810;28;20481;-80
2022/01/15 09:52:31;;;;;;;22.47;13.77;;;;;;;5.09;77.97;95510.44;5013788;28;20802;-79
2022/01/15 09:54:58;;;;;;;24.03;13.10;;;;;;;5.07;77.85;95509.69;5012880;28;20953;-80
2022/01/15 09:57:25;;;;;;;18.70;12.70;;;;;;;5.01;77.89;95512.63;5013449;28;20492;-80
2022/01/15 09:59:52;;;;;;;20.07;14.40;;;;;;;5.00;77.75;95519.59;4995326;28;20804;-80
2022/01/15 10:02:19;;;;;;;23.27;13.73;;;;;;;5.00;77.98;95522.19;5013560;28;20905;-80
2022/01/15 10:04:46;;;;;;;38.70;17.87;;;;;;;5.06;78.03;95521.84;5013505;28;20803;-80
2022/01/15 10:07:16;;;;;;;58.07;24.63;;;;;;;5.15;78.15;95520.53;5013298;28;20914;-80
2022/01/15 10:09:45;;;;;;;32.70;17.60;;;;;;;5.23;76.43;95526.19;5013609;28;20438;-80
2022/01/15 10:12:23;;;;;;;36.53;15.57;;;;;;;5.30;76.24;95527.50;5013600;28;20438;-80
2022/01/15 10:14:50;;;;;;;30.73;16.73;;;;;;;5.34;75.50;95525.59;5013109;28;20909;-80
2022/01/15 10:17:23;;;;;;;25.83;14.60;;;;;;;5.43;75.92;95525.91;5013408;28;20482;-80
2022/01/15 10:19:50;;;;;;;18.13;12.97;;;;;;;5.43;75.29;95525.06;5013355;28;20437;-81
2022/01/15 10:22:21;;;;;;;27.43;16.70;;;;;;;5.48;75.10;95516.09;5013285;28;20875;-82
2022/01/15 10:24:55;;;;;;;24.13;14.10;;;;;;;5.51;74.63;95528.97;5013077;28;20485;-82
2022/01/15 10:27:28;;;;;;;27.57;14.70;;;;;;;5.68;74.65;95520.19;5013663;28;20785;-82
2022/01/15 10:29:59;;;;;;;23.30;13.53;;;;;;;5.78;73.25;95515.31;5013001;28;20427;-82
2022/01/15 10:32:27;;;;;;;24.10;15.13;;;;;;;5.86;74.26;95511.38;5012961;28;20427;-82
2022/01/15 10:35:01;;;;;;;33.20;15.90;;;;;;;6.02;74.26;95511.38;4978782;28;20440;-82
2022/01/15 10:37:36;;;;;;;21.87;11.87;;;;;;;6.10;73.44;95503.97;5013008;28;20961;-82
2022/01/15 10:40:06;;;;;;;40.37;19.07;;;;;;;6.33;73.51;95505.22;5012978;28;20937;-81
2022/01/15 10:42:34;;;;;;;26.13;14.47;;;;;;;6.50;71.97;95499.88;5013251;28;20434;-82
2022/01/15 10:45:09;;;;;;;15.60;11.63;;;;;;;6.49;70.33;95502.56;5015522;28;20455;-82
2022/01/15 10:47:41;;;;;;;20.77;13.37;;;;;;;6.61;71.14;95501.00;5016437;28;20439;-83
2022/01/15 10:50:09;;;;;;;32.53;14.90;;;;;;;6.76;70.42;95495.72;5016271;28;20489;-84
2022/01/15 10:55:59;;;;;;;36.97;16.53;;;;;;;6.66;69.46;95496.38;5016885;28;20500;-82
2022/01/15 10:58:26;;;;;;;20.30;12.50;;;;;;;6.54;70.71;95500.53;4982158;28;20443;-81
2022/01/15 11:00:53;;;;;;;22.30;15.20;;;;;;;6.46;70.00;95494.94;5016174;28;20438;-79
2022/01/15 11:03:22;;;;;;;23.67;14.80;;;;;;;6.33;70.46;95500.00;5016462;28;20436;-79
2022/01/15 11:05:50;;;;;;;31.07;15.40;;;;;;;6.15;70.51;95499.31;5016485;28;20450;-79
2022/01/15 11:08:19;;;;;;;27.73;16.30;;;;;;;6.16;71.04;95516.63;5016554;28;20455;-80
2022/01/15 11:10:52;;;;;;;35.00;19.87;;;;;;;6.20;70.94;95515.53;4997997;28;20454;-79
2022/01/15 11:13:26;;;;;;;29.50;16.87;;;;;;;6.31;71.06;95507.09;5016268;28;20435;-79
2022/01/15 11:15:56;;;;;;;26.27;13.30;;;;;;;6.28;70.59;95509.88;5016235;28;20534;-80
2022/01/15 11:18:28;;;;;;;26.80;15.60;;;;;;;6.24;69.86;95497.09;5015912;28;20490;-80
2022/01/15 11:20:57;;;;;;;28.53;15.80;;;;;;;6.27;71.23;95502.97;5016101;28;20519;-80
2022/01/15 11:23:26;;;;;;;23.50;16.03;;;;;;;6.21;70.76;95495.53;5016152;28;20427;-79
2022/01/15 11:26:08;;;;;;;27.20;15.87;;;;;;;6.14;70.78;95487.22;5016632;28;20424;-80
2022/01/15 11:28:36;;;;;;;18.90;12.70;;;;;;;6.20;70.08;95491.25;5016476;28;20443;-83
2022/01/15 11:31:06;;;;;;;23.73;11.47;;;;;;;6.25;70.47;95480.53;5016784;28;20792;-79
2022/01/15 11:33:35;;;;;;;19.60;13.10;;;;;;;6.29;69.93;95475.06;5015840;28;20455;-81
2022/01/15 11:36:02;;;;;;;24.20;15.17;;;;;;;6.33;69.72;95481.75;5015755;28;20482;-81
2022/01/15 11:38:40;;;;;;;21.67;14.30;;;;;;;6.36;70.52;95483.34;5017052;28;20891;-84
2022/01/15 11:41:22;;;;;;;30.50;17.90;;;;;;;6.44;69.97;95483.75;4998384;28;20944;-81
2022/01/15 11:43:50;;;;;;;22.77;15.40;;;;;;;6.47;70.26;95481.81;5015822;28;20443;-81
2022/01/15 11:46:29;;;;;;;21.30;13.63;;;;;;;6.57;70.16;95474.25;5016836;28;20450;-85
2022/01/15 11:49:33;;;;;;;18.33;11.77;;;;;;;6.60;68.96;95481.06;5017233;28;20803;-87
2022/01/15 11:52:41;;;;;;;19.30;12.97;;;;;;;6.60;69.22;95475.84;5016112;28;20481;-83
2022/01/15 11:55:29;;;;;;;18.63;12.40;;;;;;;6.49;69.14;95482.56;5015193;28;20808;-82
2022/01/15 11:57:59;;;;;;;15.53;11.93;;;;;;;6.45;69.06;95477.63;5015802;28;20483;-87
2022/01/15 12:00:33;;;;;;;19.43;12.23;;;;;;;6.40;68.37;95477.06;5016721;28;20522;-83
2022/01/15 12:03:04;;;;;;;18.20;11.93;;;;;;;6.50;69.15;95479.00;5016149;28;20438;-85
2022/01/15 12:05:33;;;;;;;17.40;12.27;;;;;;;6.57;69.30;95481.25;5016040;28;20453;-82
2022/01/15 12:14:48;;;;;;;19.33;13.33;;;;;;;6.79;67.26;95477.28;4973889;28;20899;-85
2022/01/15 12:17:27;;;;;;;14.70;9.77;;;;;;;6.73;66.40;95480.25;4957959;28;20485;-83
2022/01/15 12:19:55;;;;;;;15.43;10.27;;;;;;;6.66;66.73;95471.13;4974051;28;20441;-80
2022/01/15 12:22:39;;;;;;;21.33;13.23;;;;;;;6.59;66.64;95469.78;4974013;28;20456;-80
2022/01/15 12:25:07;;;;;;;23.43;13.30;;;;;;;6.59;66.71;95477.63;4973801;28;20440;-81
2022/01/15 12:27:36;;;;;;;20.30;13.00;;;;;;;6.51;67.15;95483.28;4973847;28;20796;-80
2022/01/15 12:30:10;;;;;;;16.60;11.37;;;;;;;6.50;67.29;95476.41;4975606;28;20433;-84
2022/01/15 12:32:42;;;;;;;26.50;11.60;;;;;;;6.53;67.30;95473.63;4977791;28;20439;-82
2022/01/15 12:35:15;;;;;;;21.07;11.60;;;;;;;6.62;67.55;95480.03;4976420;28;20535;-82
2022/01/15 12:44:29;;;;;;;21.80;12.90;;;;;;;6.75;66.60;95477.56;4980015;28;20397;-85
2022/01/15 12:46:58;;;;;;;22.43;12.60;;;;;;;6.73;67.07;95469.81;4997188;28;20444;-81
2022/01/15 12:49:38;;;;;;;24.57;12.50;;;;;;;6.73;66.41;95469.81;5016368;28;20439;-81
2022/01/15 12:52:13;;;;;;;26.40;14.03;;;;;;;6.84;66.99;95474.38;5015400;28;20482;-79
2022/01/15 12:54:40;;;;;;;14.50;10.57;;;;;;;7.00;67.20;95474.28;5014746;28;20448;-79
2022/01/15 12:57:07;;;;;;;21.23;13.57;;;;;;;7.03;65.54;95476.72;5022988;28;20475;-79
2022/01/15 12:59:34;;;;;;;22.67;14.30;;;;;;;7.02;64.94;95472.44;5026680;28;20796;-79
2022/01/15 13:02:01;;;;;;;22.43;14.03;;;;;;;6.97;64.97;95469.25;4995035;28;20939;-79
2022/01/15 13:04:28;;;;;;;23.50;13.70;;;;;;;7.00;65.20;95476.91;5028021;28;20487;-79
2022/01/15 13:07:01;;;;;;;29.00;15.80;;;;;;;6.90;64.36;95471.38;5029044;28;20485;-83
2022/01/15 13:09:45;;;;;;;17.43;12.23;;;;;;;6.80;65.34;95476.34;5031490;28;20482;-84
2022/01/15 13:12:12;;;;;;;20.90;14.67;;;;;;;6.74;66.33;95471.50;5030859;28;20450;-79
2022/01/15 13:14:43;;;;;;;28.97;16.50;;;;;;;6.69;65.23;95473.53;5028392;28;20530;-78
2022/01/15 13:17:24;;;;;;;26.97;14.67;;;;;;;6.63;64.54;95473.88;5028753;28;20485;-79
2022/01/15 13:19:51;;;;;;;19.50;14.27;;;;;;;6.57;64.80;95466.44;4996643;28;20439;-78
2022/01/15 13:22:24;;;;;;;23.53;15.37;;;;;;;6.56;64.91;95477.81;5007138;28;20447;-78
2022/01/15 13:25:05;;;;;;;19.87;13.90;;;;;;;6.56;64.81;95479.56;5015631;28;20800;-83
2022/01/15 13:27:33;;;;;;;18.77;13.57;;;;;;;6.58;64.46;95488.13;5015277;28;20447;-78
2022/01/15 13:30:03;;;;;;;18.50;13.03;;;;;;;6.49;64.46;95484.31;5014130;28;20435;-80
2022/01/15 13:32:30;;;;;;;15.60;10.60;;;;;;;6.46;64.31;95492.31;5014554;28;20911;-81
2022/01/15 13:35:11;;;;;;;21.07;14.73;;;;;;;6.51;64.78;95495.50;5015059;28;20473;-81
2022/01/15 13:37:52;;;;;;;28.23;16.60;;;;;;;6.52;64.96;95502.38;5015840;28;20478;-82
2022/01/15 13:40:43;;;;;;;27.43;14.20;;;;;;;6.57;64.59;95494.28;5015367;28;20529;-80
2022/01/15 13:43:13;;;;;;;26.67;17.93;;;;;;;6.54;64.85;95487.50;5014986;28;20458;-86